createdAt,value
2018-09-15T00:00:52.902Z,13.73
2018-09-15T00:03:21.442Z,14.63
2018-09-15T00:05:49.720Z,15.07
2018-09-15T00:08:18.045Z,15.43
2018-09-15T00:10:46.556Z,15.43
2018-09-15T00:13:15.277Z,13.97
2018-09-15T00:15:43.600Z,14.30
2018-09-15T00:18:13.524Z,14.67
2018-09-15T00:20:41.806Z,14.67
2018-09-15T00:23:11.062Z,14.10
2018-09-15T00:25:41.219Z,15.43
2018-09-15T00:28:10.302Z,16.00
2018-09-15T00:30:38.690Z,15.50
2018-09-15T00:33:06.985Z,13.60
2018-09-15T00:35:35.287Z,14.53
2018-09-15T00:38:03.603Z,15.57
2018-09-15T00:40:31.955Z,15.87
2018-09-15T00:43:00.258Z,14.87
2018-09-15T00:45:28.634Z,14.43
2018-09-15T00:47:57.140Z,14.23
2018-09-15T00:50:25.453Z,14.63
2018-09-15T00:52:53.754Z,14.17
2018-09-15T00:55:22.035Z,15.67
2018-09-15T00:57:50.322Z,14.53
2018-09-15T01:00:19.812Z,14.23
2018-09-15T01:02:48.105Z,14.97
2018-09-15T01:05:16.558Z,14.10
2018-09-15T01:07:44.903Z,14.23
2018-09-15T01:10:13.154Z,14.70
2018-09-15T01:12:41.442Z,15.93
2018-09-15T01:15:09.743Z,15.67
2018-09-15T01:17:38.021Z,13.63
2018-09-15T01:20:06.339Z,16.37
2018-09-15T01:22:34.612Z,14.57
2018-09-15T01:25:02.890Z,14.80
2018-09-15T01:27:31.234Z,14.57
2018-09-15T01:29:59.507Z,15.87
2018-09-15T01:32:28.454Z,14.43
2018-09-15T01:34:57.050Z,15.43
2018-09-15T01:37:25.562Z,14.93
2018-09-15T01:39:53.863Z,15.40
2018-09-15T01:42:22.143Z,13.80
2018-09-15T01:44:50.437Z,14.37
2018-09-15T01:47:18.714Z,14.07
2018-09-15T01:49:47.052Z,13.87
2018-09-15T01:52:15.352Z,14.40
2018-09-15T01:54:43.642Z,13.50
2018-09-15T01:57:12.255Z,14.73
2018-09-15T01:59:40.578Z,13.47
2018-09-15T02:02:08.891Z,13.57
2018-09-15T02:04:37.160Z,15.00
2018-09-15T02:07:05.436Z,13.83
2018-09-15T02:09:33.699Z,13.67
2018-09-15T02:12:01.971Z,13.13
2018-09-15T02:14:30.239Z,14.03
2018-09-15T02:16:58.606Z,13.00
2018-09-15T02:19:26.890Z,13.30
2018-09-15T02:21:55.181Z,13.83
2018-09-15T02:24:23.461Z,12.90
2018-09-15T02:26:51.738Z,13.23
2018-09-15T02:29:20.015Z,13.07
2018-09-15T02:31:48.302Z,14.63
2018-09-15T02:34:16.570Z,13.87
2018-09-15T02:36:44.843Z,14.73
2018-09-15T02:39:13.483Z,14.20
2018-09-15T02:41:41.765Z,12.93
2018-09-15T02:44:10.055Z,13.53
2018-09-15T02:46:38.333Z,12.73
2018-09-15T02:49:06.631Z,12.43
2018-09-15T02:51:34.914Z,12.40
2018-09-15T02:54:03.186Z,13.07
2018-09-15T02:56:31.469Z,11.63
2018-09-15T02:58:59.746Z,11.87
2018-09-15T03:01:28.025Z,11.77
2018-09-15T03:03:56.288Z,12.40
2018-09-15T03:06:24.682Z,12.03
2018-09-15T03:08:52.956Z,13.10
2018-09-15T03:11:21.231Z,13.07
2018-09-15T03:13:49.527Z,11.97
2018-09-15T03:16:17.794Z,14.93
2018-09-15T03:18:46.076Z,11.23
2018-09-15T03:21:14.352Z,8.40
2018-09-15T03:23:42.628Z,7.50
2018-09-15T03:26:10.893Z,7.30
2018-09-15T03:28:39.168Z,8.17
2018-09-15T03:31:07.450Z,7.90
2018-09-15T03:33:36.804Z,8.57
2018-09-15T03:36:05.058Z,8.10
2018-09-15T03:38:33.324Z,8.00
2018-09-15T03:41:01.592Z,8.87
2018-09-15T03:43:29.855Z,10.27
2018-09-15T03:45:58.110Z,7.60
2018-09-15T03:48:26.380Z,8.57
2018-09-15T03:50:54.644Z,7.97
2018-09-15T03:53:22.922Z,10.20
2018-09-15T03:55:51.183Z,7.77
2018-09-15T03:58:19.438Z,8.87
2018-09-15T04:00:48.833Z,9.23
2018-09-15T04:03:17.303Z,8.67
2018-09-15T04:05:45.575Z,10.30
2018-09-15T04:08:13.885Z,9.93
2018-09-15T04:10:42.309Z,9.80
2018-09-15T04:13:10.592Z,12.20
2018-09-15T04:15:38.880Z,10.10
2018-09-15T04:18:07.368Z,10.10
2018-09-15T04:20:35.663Z,9.83
2018-09-15T04:23:03.984Z,10.57
2018-09-15T04:25:32.282Z,13.07
2018-09-15T04:28:00.554Z,9.90
2018-09-15T04:30:28.828Z,11.40
2018-09-15T04:32:57.112Z,11.13
2018-09-15T04:35:25.451Z,9.53
2018-09-15T04:37:53.710Z,9.47
2018-09-15T04:40:21.979Z,10.67
2018-09-15T04:42:50.268Z,9.33
2018-09-15T04:45:18.536Z,9.73
2018-09-15T04:47:46.819Z,10.93
2018-09-15T04:50:15.088Z,9.27
2018-09-15T04:52:43.403Z,10.47
2018-09-15T04:55:11.659Z,8.77
2018-09-15T04:57:39.928Z,9.77
2018-09-15T05:00:08.249Z,10.73
2018-09-15T05:02:36.482Z,9.43
2018-09-15T05:05:04.783Z,12.07
2018-09-15T05:07:33.022Z,9.70
2018-09-15T05:10:01.275Z,9.27
2018-09-15T05:12:29.550Z,13.10
2018-09-15T05:14:57.767Z,9.77
2018-09-15T05:17:26.003Z,10.40
2018-09-15T05:19:54.314Z,9.77
2018-09-15T05:22:22.570Z,12.00
2018-09-15T05:24:50.827Z,10.37
2018-09-15T05:27:19.071Z,9.97
2018-09-15T05:29:47.332Z,12.20
2018-09-15T05:32:15.589Z,10.47
2018-09-15T05:34:43.874Z,11.20
2018-09-15T05:37:12.272Z,10.37
2018-09-15T05:39:40.619Z,10.40
2018-09-15T05:42:08.866Z,10.73
2018-09-15T05:44:37.107Z,11.03
2018-09-15T05:47:05.508Z,10.57
2018-09-15T05:49:34.628Z,13.07
2018-09-15T05:52:02.992Z,12.23
2018-09-15T05:54:31.237Z,11.67
2018-09-15T05:56:59.491Z,13.93
2018-09-15T05:59:27.886Z,11.40
2018-09-15T06:01:56.311Z,11.43
2018-09-15T06:04:24.549Z,12.13
2018-09-15T06:06:52.851Z,13.27
2018-09-15T06:09:21.090Z,12.27
2018-09-15T06:11:49.428Z,11.40
2018-09-15T06:14:17.699Z,11.83
2018-09-15T06:16:46.463Z,11.47
2018-09-15T06:19:15.550Z,12.40
2018-09-15T06:21:45.972Z,12.70
2018-09-15T06:24:14.388Z,13.27
2018-09-15T06:26:44.703Z,11.70
2018-09-15T06:29:13.562Z,12.97
2018-09-15T06:31:43.422Z,13.40
2018-09-15T06:34:11.823Z,11.87
2018-09-15T06:36:40.504Z,11.30
2018-09-15T06:39:10.132Z,14.10
2018-09-15T06:41:38.870Z,13.73
2018-09-15T06:44:07.179Z,12.27
2018-09-15T06:46:35.610Z,15.97
2018-09-15T06:49:04.191Z,14.53
2018-09-15T06:51:32.775Z,12.70
2018-09-15T06:54:01.448Z,13.10
2018-09-15T06:56:29.782Z,13.93
2018-09-15T06:58:58.455Z,15.97
2018-09-15T07:01:26.749Z,14.07
2018-09-15T07:03:55.223Z,12.47
2018-09-15T07:06:23.773Z,12.00
2018-09-15T07:08:52.205Z,13.77
2018-09-15T07:11:20.673Z,12.83
2018-09-15T07:13:49.206Z,10.93
2018-09-15T07:16:17.474Z,12.27
2018-09-15T07:18:45.837Z,13.40
2018-09-15T07:21:14.163Z,11.13
2018-09-15T07:23:42.637Z,10.10
2018-09-15T07:26:10.935Z,10.20
2018-09-15T07:28:39.295Z,8.37
2018-09-15T07:31:07.609Z,9.90
2018-09-15T07:33:35.894Z,10.27
2018-09-15T07:36:04.488Z,9.98
2018-09-15T07:38:32.808Z,7.33
2018-09-15T07:41:01.078Z,6.70
2018-09-15T07:43:29.456Z,7.67
2018-09-15T07:45:57.726Z,6.67
2018-09-15T07:48:25.991Z,9.05
2018-09-15T07:50:54.231Z,8.70
2018-09-15T07:53:22.536Z,7.17
2018-09-15T07:55:50.781Z,7.67
2018-09-15T07:58:19.079Z,4.33
2018-09-15T08:00:47.360Z,5.22
2018-09-15T08:03:16.688Z,5.42
2018-09-15T08:05:44.995Z,8.38
2018-09-15T08:08:13.291Z,7.05
2018-09-15T08:10:41.610Z,4.08
2018-09-15T08:13:09.935Z,4.92
2018-09-15T08:15:38.221Z,3.45
2018-09-15T08:18:06.775Z,5.22
2018-09-15T08:20:35.201Z,3.98
2018-09-15T08:23:03.503Z,5.15
2018-09-15T08:25:31.801Z,6.10
2018-09-15T08:28:00.068Z,4.92
2018-09-15T08:30:28.374Z,4.45
2018-09-15T08:32:56.654Z,6.00
2018-09-15T08:35:24.923Z,5.85
2018-09-15T08:37:53.199Z,4.30
2018-09-15T08:40:21.482Z,4.12
2018-09-15T08:42:49.810Z,4.05
2018-09-15T08:45:18.422Z,3.75
2018-09-15T08:47:46.731Z,6.85
2018-09-15T08:50:15.003Z,5.03
2018-09-15T08:52:43.475Z,4.92
2018-09-15T08:55:11.798Z,6.65
2018-09-15T08:57:40.148Z,6.33
2018-09-15T09:00:08.415Z,4.67
2018-09-15T09:02:36.731Z,5.90
2018-09-15T09:05:05.023Z,4.25
2018-09-15T09:07:34.509Z,3.75
2018-09-15T09:10:02.983Z,4.47
2018-09-15T09:12:31.252Z,4.87
2018-09-15T09:14:59.537Z,3.80
2018-09-15T09:17:27.831Z,4.47
2018-09-15T09:19:56.146Z,4.85
2018-09-15T09:22:24.397Z,4.42
2018-09-15T09:24:52.673Z,3.98
2018-09-15T09:27:20.946Z,3.75
2018-09-15T09:29:49.313Z,4.37
2018-09-15T09:32:17.654Z,5.67
2018-09-15T09:34:45.914Z,4.22
2018-09-15T09:37:14.484Z,2.70
2018-09-15T09:39:42.779Z,4.72
2018-09-15T09:42:11.054Z,5.42
2018-09-15T09:44:39.318Z,7.58
2018-09-15T09:47:07.670Z,4.72
2018-09-15T09:49:35.945Z,3.75
2018-09-15T09:52:04.546Z,3.20
2018-09-15T09:54:32.961Z,3.75
2018-09-15T09:57:01.239Z,3.30
2018-09-15T09:59:29.575Z,4.95
2018-09-15T10:02:03.674Z,4.58
2018-09-15T10:04:32.436Z,4.50
2018-09-15T10:07:00.853Z,4.20
2018-09-15T10:09:29.083Z,2.80
2018-09-15T10:11:57.378Z,3.58
2018-09-15T10:14:25.665Z,4.62
2018-09-15T10:16:53.935Z,3.37
2018-09-15T10:19:22.224Z,3.52
2018-09-15T10:21:50.834Z,3.92
2018-09-15T10:24:19.141Z,2.72
2018-09-15T10:26:47.462Z,5.37
2018-09-15T10:29:15.759Z,3.25
2018-09-15T10:31:44.026Z,3.12
2018-09-15T10:34:12.384Z,3.67
2018-09-15T10:36:40.638Z,2.87
2018-09-15T10:39:09.923Z,3.17
2018-09-15T10:41:38.191Z,5.12
2018-09-15T10:44:06.599Z,8.43
2018-09-15T10:46:35.120Z,2.72
2018-09-15T10:49:03.611Z,4.60
2018-09-15T10:51:31.902Z,4.87
2018-09-15T10:54:00.350Z,3.42
2018-09-15T10:56:28.810Z,4.70
2018-09-15T10:58:57.128Z,7.30
2018-09-15T11:01:25.387Z,2.72
2018-09-15T11:03:53.641Z,6.10
2018-09-15T11:06:21.936Z,5.72
2018-09-15T11:11:11.246Z,3.90
2018-09-15T11:13:39.579Z,3.87
2018-09-15T11:16:07.776Z,7.25
2018-09-15T11:18:36.040Z,3.27
2018-09-15T11:21:04.290Z,4.85
2018-09-15T11:23:32.569Z,3.73
2018-09-15T11:26:01.136Z,4.90
2018-09-15T11:28:29.442Z,6.87
2018-09-15T11:30:57.650Z,4.42
2018-09-15T11:33:25.938Z,5.10
2018-09-15T11:35:54.223Z,8.40
2018-09-15T11:38:22.479Z,4.17
2018-09-15T11:40:50.752Z,4.55
2018-09-15T11:43:18.996Z,4.93
2018-09-15T11:45:47.318Z,4.77
2018-09-15T11:48:15.549Z,4.63
2018-09-15T11:50:43.795Z,4.20
2018-09-15T11:53:12.042Z,6.03
2018-09-15T11:55:40.277Z,6.57
2018-09-15T11:58:08.692Z,8.17
2018-09-15T12:00:39.435Z,5.40
2018-09-15T12:03:08.288Z,4.63
2018-09-15T12:05:36.543Z,6.17
2018-09-15T12:08:04.791Z,5.30
2018-09-15T12:10:33.054Z,3.43
2018-09-15T12:13:01.385Z,3.40
2018-09-15T12:15:29.657Z,5.87
2018-09-15T12:17:57.940Z,4.13
2018-09-15T12:20:26.218Z,3.30
2018-09-15T12:22:54.590Z,5.50
2018-09-15T12:25:22.848Z,5.45
2018-09-15T12:27:51.218Z,5.22
2018-09-15T12:30:19.552Z,5.67
2018-09-15T12:32:47.836Z,3.60
2018-09-15T12:35:16.164Z,6.03
2018-09-15T12:37:44.427Z,5.07
2018-09-15T12:40:12.690Z,5.93
2018-09-15T12:42:40.988Z,6.90
2018-09-15T12:45:09.316Z,6.10
2018-09-15T12:47:37.569Z,3.63
2018-09-15T12:50:05.838Z,3.30
2018-09-15T12:52:34.115Z,3.27
2018-09-15T12:55:03.759Z,5.60
2018-09-15T12:57:32.028Z,4.73
2018-09-15T13:00:00.290Z,4.70
2018-09-15T13:02:28.550Z,4.70
2018-09-15T13:04:56.808Z,3.10
2018-09-15T13:07:25.089Z,8.60
2018-09-15T13:09:53.365Z,5.57
2018-09-15T13:12:21.630Z,5.97
2018-09-15T13:14:49.888Z,5.83
2018-09-15T13:17:18.218Z,7.77
2018-09-15T13:19:46.588Z,4.47
2018-09-15T13:22:14.849Z,4.07
2018-09-15T13:24:43.139Z,4.43
2018-09-15T13:27:11.408Z,5.77
2018-09-15T13:29:40.066Z,3.33
2018-09-15T13:32:08.154Z,9.30
2018-09-15T13:34:36.795Z,4.97
2018-09-15T13:37:05.242Z,4.23
2018-09-15T13:39:33.927Z,5.40
2018-09-15T13:42:02.202Z,4.97
2018-09-15T13:44:30.465Z,6.00
2018-09-15T13:49:31.895Z,2.70
2018-09-15T13:52:00.155Z,3.70
2018-09-15T13:54:28.421Z,9.23
2018-09-15T13:56:56.681Z,6.57
2018-09-15T13:59:24.953Z,4.57
2018-09-15T14:01:53.224Z,5.20
2018-09-15T14:04:21.520Z,4.27
2018-09-15T14:06:49.948Z,6.47
2018-09-15T14:09:18.204Z,5.77
2018-09-15T14:11:46.788Z,4.97
2018-09-15T14:14:15.044Z,7.57
2018-09-15T14:16:43.662Z,4.77
2018-09-15T14:19:11.864Z,4.40
2018-09-15T14:21:40.134Z,4.43
2018-09-15T14:24:08.393Z,3.90
2018-09-15T14:26:36.682Z,7.27
2018-09-15T14:29:04.974Z,4.53
2018-09-15T14:31:33.235Z,3.57
2018-09-15T14:34:01.701Z,5.20
2018-09-15T14:36:29.955Z,3.30
2018-09-15T14:38:58.364Z,3.90
2018-09-15T14:41:26.660Z,5.90
2018-09-15T14:43:54.915Z,5.93
2018-09-15T14:46:23.221Z,4.70
2018-09-15T14:48:51.501Z,6.37
2018-09-15T14:51:19.812Z,4.27
2018-09-15T14:53:48.209Z,6.27
2018-09-15T14:56:16.596Z,4.33
2018-09-15T14:58:44.844Z,4.70
2018-09-15T15:01:13.159Z,5.53
2018-09-15T15:03:41.408Z,3.60
2018-09-15T15:06:09.763Z,4.57
2018-09-15T15:08:38.003Z,5.03
2018-09-15T15:11:06.608Z,4.13
2018-09-15T15:13:34.931Z,3.40
2018-09-15T15:16:03.135Z,4.13
2018-09-15T15:18:31.967Z,4.73
2018-09-15T15:21:01.250Z,2.70
2018-09-15T15:23:29.506Z,5.77
2018-09-15T15:25:57.957Z,6.07
2018-09-15T15:28:26.440Z,6.40
2018-09-15T15:30:54.850Z,5.40
2018-09-15T15:33:23.297Z,4.10
2018-09-15T15:35:51.559Z,3.10
2018-09-15T15:38:19.867Z,2.33
2018-09-15T15:40:48.115Z,4.80
2018-09-15T15:43:16.389Z,5.60
2018-09-15T15:45:44.610Z,3.57
2018-09-15T15:48:12.839Z,5.13
2018-09-15T15:50:41.203Z,3.27
2018-09-15T15:53:09.527Z,5.17
2018-09-15T15:55:38.656Z,3.33
2018-09-15T15:58:07.121Z,6.03
2018-09-15T16:00:35.748Z,5.53
2018-09-15T16:03:04.468Z,4.13
2018-09-15T16:05:33.229Z,3.23
2018-09-15T16:08:01.694Z,4.90
2018-09-15T16:10:29.976Z,5.43
2018-09-15T16:12:58.373Z,2.93
2018-09-15T16:15:26.728Z,3.93
2018-09-15T16:17:55.098Z,4.30
2018-09-15T16:20:23.399Z,3.30
2018-09-15T16:22:51.730Z,3.20
2018-09-15T16:25:20.232Z,4.20
2018-09-15T16:27:48.803Z,6.47
2018-09-15T16:30:17.098Z,3.07
2018-09-15T16:32:45.500Z,3.93
2018-09-15T16:35:13.866Z,3.23
2018-09-15T16:37:42.169Z,3.37
2018-09-15T16:40:10.442Z,2.67
2018-09-15T16:42:38.824Z,3.47
2018-09-15T16:45:07.314Z,2.70
2018-09-15T16:47:35.714Z,4.27
2018-09-15T16:50:04.101Z,3.00
2018-09-15T16:52:32.367Z,2.10
2018-09-15T16:55:00.773Z,3.70
2018-09-15T16:57:29.064Z,2.30
2018-09-15T16:59:57.348Z,3.73
2018-09-15T17:02:25.642Z,3.43
2018-09-15T17:04:53.887Z,2.13
2018-09-15T17:07:22.145Z,2.60
2018-09-15T17:09:50.510Z,2.57
2018-09-15T17:12:18.903Z,2.40
2018-09-15T17:14:47.760Z,3.30
2018-09-15T17:17:16.185Z,4.83
2018-09-15T17:19:44.434Z,2.77
2018-09-15T17:22:12.667Z,2.97
2018-09-15T17:24:40.965Z,3.10
2018-09-15T17:27:09.345Z,2.90
2018-09-15T17:29:37.647Z,4.60
2018-09-15T17:32:06.110Z,2.73
2018-09-15T17:34:34.362Z,1.60
2018-09-15T17:37:02.621Z,3.17
2018-09-15T17:39:31.147Z,3.97
2018-09-15T17:41:59.471Z,5.03
2018-09-15T17:44:27.940Z,2.60
2018-09-15T17:46:56.185Z,3.00
2018-09-15T17:49:24.454Z,5.63
2018-09-15T17:51:52.882Z,3.93
2018-09-15T17:54:21.550Z,7.80
2018-09-15T17:56:49.794Z,2.83
2018-09-15T17:59:18.071Z,5.20
2018-09-15T18:01:46.352Z,4.23
2018-09-15T18:04:14.619Z,4.70
2018-09-15T18:06:42.961Z,2.57
2018-09-15T18:09:11.264Z,4.70
2018-09-15T18:11:40.075Z,6.63
2018-09-15T18:14:08.423Z,6.70
2018-09-15T18:16:36.911Z,2.17
2018-09-15T18:19:05.362Z,6.83
2018-09-15T18:21:33.711Z,2.53
2018-09-15T18:24:02.044Z,2.70
2018-09-15T18:26:30.291Z,3.10
2018-09-15T18:28:58.864Z,4.13
2018-09-15T18:31:27.114Z,2.17
2018-09-15T18:33:55.421Z,4.23
2018-09-15T18:36:23.682Z,2.10
2018-09-15T18:38:52.044Z,4.53
2018-09-15T18:41:20.516Z,2.10
2018-09-15T18:43:48.781Z,2.90
2018-09-15T18:46:17.131Z,5.53
2018-09-15T18:48:46.136Z,4.80
2018-09-15T18:51:14.527Z,4.40
2018-09-15T18:53:42.816Z,4.97
2018-09-15T18:56:11.058Z,7.13
2018-09-15T18:58:39.302Z,2.83
2018-09-15T19:01:07.571Z,5.33
2018-09-15T19:03:36.166Z,4.30
2018-09-15T19:06:04.558Z,6.27
2018-09-15T19:08:33.157Z,4.60
2018-09-15T19:11:01.504Z,4.90
2018-09-15T19:13:29.776Z,6.57
2018-09-15T19:15:58.040Z,3.90
2018-09-15T19:18:26.274Z,7.63
2018-09-15T19:20:54.541Z,4.17
2018-09-15T19:23:22.932Z,4.80
2018-09-15T19:25:51.183Z,4.97
2018-09-15T19:28:19.898Z,6.07
2018-09-15T19:30:48.196Z,3.50
2018-09-15T19:33:16.715Z,8.43
2018-09-15T19:35:44.968Z,3.60
2018-09-15T19:38:13.290Z,4.53
2018-09-15T19:40:41.678Z,3.47
2018-09-15T19:43:09.962Z,4.17
2018-09-15T19:45:38.417Z,3.97
2018-09-15T19:48:06.919Z,3.53
2018-09-15T19:50:36.726Z,6.63
2018-09-15T19:53:05.037Z,4.70
2018-09-15T19:55:33.403Z,5.07
2018-09-15T19:58:01.656Z,4.27
2018-09-15T20:00:29.979Z,5.57
2018-09-15T20:02:58.227Z,5.40
2018-09-15T20:05:26.618Z,4.23
2018-09-15T20:07:54.862Z,6.60
2018-09-15T20:10:23.114Z,4.70
2018-09-15T20:12:52.088Z,3.80
2018-09-15T20:15:22.808Z,5.83
2018-09-15T20:17:50.154Z,3.77
2018-09-15T20:20:17.537Z,5.93
2018-09-15T20:22:45.811Z,4.47
2018-09-15T20:25:14.293Z,5.10
2018-09-15T20:27:42.549Z,4.90
2018-09-15T20:30:11.180Z,4.47
2018-09-15T20:32:39.500Z,8.33
2018-09-15T20:35:07.761Z,6.33
2018-09-15T20:37:36.459Z,4.80
2018-09-15T20:40:04.730Z,5.77
2018-09-15T20:42:33.226Z,4.57
2018-09-15T20:45:01.482Z,6.10
2018-09-15T20:47:29.758Z,7.90
2018-09-15T20:49:58.012Z,4.97
2018-09-15T20:52:26.367Z,6.87
2018-09-15T20:54:54.627Z,6.70
2018-09-15T20:57:22.919Z,4.33
2018-09-15T20:59:51.174Z,4.43
2018-09-15T21:02:19.446Z,5.03
2018-09-15T21:04:47.698Z,4.00
2018-09-15T21:07:15.966Z,6.20
2018-09-15T21:09:44.281Z,4.40
2018-09-15T21:12:12.548Z,4.70
2018-09-15T21:14:40.899Z,5.00
2018-09-15T21:17:09.347Z,5.53
2018-09-15T21:19:37.664Z,5.07
2018-09-15T21:22:05.981Z,4.50
2018-09-15T21:24:34.264Z,4.43
2018-09-15T21:27:02.550Z,3.50
2018-09-15T21:29:31.087Z,4.97
2018-09-15T21:32:00.238Z,3.43
2018-09-15T21:34:28.638Z,5.23
2018-09-15T21:36:57.009Z,4.77
2018-09-15T21:39:25.282Z,5.67
2018-09-15T21:41:53.554Z,5.80
2018-09-15T21:44:21.866Z,4.07
2018-09-15T21:46:50.171Z,6.40
2018-09-15T21:49:18.463Z,6.97
2018-09-15T21:51:46.736Z,5.37
2018-09-15T21:54:15.021Z,5.23
2018-09-15T21:56:43.290Z,3.97
2018-09-15T21:59:11.567Z,3.47
2018-09-15T22:01:39.831Z,4.77
2018-09-15T22:04:13.636Z,5.10
2018-09-15T22:06:42.098Z,4.27
2018-09-15T22:09:11.938Z,4.53
2018-09-15T22:11:40.522Z,4.20
2018-09-15T22:14:08.918Z,4.30
2018-09-15T22:16:37.607Z,3.23
2018-09-15T22:19:06.103Z,5.43
2018-09-15T22:21:34.499Z,3.50
2018-09-15T22:24:03.060Z,4.43
2018-09-15T22:26:31.583Z,4.97
2018-09-15T22:28:59.854Z,3.43
2018-09-15T22:31:28.372Z,7.03
2018-09-15T22:33:56.737Z,3.83
2018-09-15T22:36:24.950Z,4.77
2018-09-15T22:38:53.225Z,7.20
2018-09-15T22:41:21.504Z,5.67
2018-09-15T22:43:49.974Z,3.93
2018-09-15T22:46:18.250Z,4.13
2018-09-15T22:48:46.624Z,4.97
2018-09-15T22:51:14.910Z,3.93
2018-09-15T22:53:43.231Z,5.57
2018-09-15T22:56:11.509Z,5.93
2018-09-15T22:58:39.858Z,4.53
2018-09-15T23:01:08.175Z,4.20
2018-09-15T23:03:36.437Z,4.60
2018-09-15T23:06:04.810Z,6.30
2018-09-15T23:08:33.248Z,4.70
2018-09-15T23:11:01.622Z,5.40
2018-09-15T23:13:29.905Z,4.10
2018-09-15T23:15:58.172Z,4.53
2018-09-15T23:18:26.467Z,3.93
2018-09-15T23:20:54.754Z,4.00
2018-09-15T23:23:23.022Z,6.17
2018-09-15T23:25:51.287Z,6.20
2018-09-15T23:28:19.628Z,5.63
2018-09-15T23:30:47.917Z,4.03
2018-09-15T23:33:16.190Z,5.27
2018-09-15T23:35:44.478Z,4.20
2018-09-15T23:38:12.751Z,4.13
2018-09-15T23:40:41.093Z,4.00
2018-09-15T23:43:09.368Z,4.13
2018-09-15T23:45:37.634Z,3.90
2018-09-15T23:48:05.907Z,4.43
2018-09-15T23:50:34.191Z,4.13
2018-09-15T23:53:02.503Z,5.30
2018-09-15T23:55:30.778Z,4.90
2018-09-15T23:57:59.067Z,5.10
